Fredericksburg, Virginia
Current Conditions -  °F | °C
As of 10:35 PM on Monday 20 Oct 2014 (Local Time) from KEZF Reporting Station
Drizzle Drizzle  
Wind Chill: 59°   Ceiling: 8000
Heat Index: 59°   Visibility: 10mi
Dew Point: 47°   Wind: 7mph
Humidity: 64%   Direction: 200°SSW
Pressure: 29.96"   Gusts: NA
Location:  38.3°N, 77.46°W
Report Text: KEZF 210235Z AUTO 20006KT 10SM -DZ OVC080 15/08 A2996 RMK AO2 T01510083
Loading
Personal Weather Stations






























Interactive Weather Map
Tropical Storm Tracking
New forecast layout! Learn more

10-Day Weather Forecast

Advertisements
Track Severe Weather on mobile